x

North Hecate Strait (46183) Wave Buoy

5:00am - Sat 22nd Nov 2014 All times are PST. -8 hours from GMT.

  • Sig Wave height 3.6ft
  • Peak Period 8s
  • Wind
    11mph, 13mph gusts
  • Sea Temp 51°f
  • Air Temp 48°f
  • Sea Pressure 997.4mb
  • North Hecate Strait
  • North Hecate Strait

More Historic Weather Station data

Upgrade to MSW Pro to gain access to the past 30 days of data for over 8000 Wavebouys and Weather Stations around the globe.

Join Pro

Comparision Forecast

View Surf forecast
   
Sat 11/22 5:00am 3.5ft 8s 11 13 mph 997.4mb 51f 48f
4:00am 3.5ft 9s 11 13 mph 996.9mb 51f 48f
3:00am 3.5ft 9s 13 16 mph 996.3mb 51f 48f
2:00am 4ft 8s 13 16 mph 995.6mb 51f 48f
1:00am 4.5ft 8s 13 16 mph 994.9mb 51f 48f
12:00am 4.5ft 14s 11 13 mph 994.3mb 51f 48f
Fri 11/21 11:00pm 4.5ft 9s 11 13 mph 993.5mb 51f 48f
10:00pm 5.5ft 8s 13
mph
993.1mb 51f 48f
9:00pm 5ft 9s 11 13 mph 992.6mb 51f 48f
8:00pm 6.5ft 10s 11 16 mph 992.3mb 51f 48f
7:00pm 7ft 10s 11 13 mph 992mb 51f 48f
6:00pm 7ft 10s 9 11 mph 991.7mb 51f 48f
5:00pm 6.5ft 10s 9 13 mph 991.5mb 51f 48f
4:00pm 7ft 11s 9 13 mph 991.1mb 51f 48f
3:00pm 7.5ft 10s 9 13 mph 990.8mb 51f 48f
2:00pm 8ft 11s 7 9 mph 990.7mb 51f 49f
1:00pm 8ft 11s 7 11 mph 990.7mb 51f 49f
12:00pm 9.5ft 10s 9 13 mph 990.7mb 51f 49f
11:00am 12ft 10s 16 20 mph 990.3mb 51f 48f
10:00am 12ft 9s 13 18 mph 990.3mb 51f 48f
9:00am 13ft 9s 16 22 mph 989.7mb 51f 48f
8:00am 13ft 10s 18 25 mph 988.7mb 51f 47f
6:00am 15.5ft 9s 38 49 mph 989mb 51f 50f
5:00am 15ft 8s 34 40 mph 990.4mb 51f 49f
4:00am 13.5ft 9s 34 43 mph 991.6mb 51f 50f
3:00am 12ft 8s 36 45 mph 992.5mb 51f 50f
2:00am  -   -  36
mph
- - 50f
1:00am 10ft 8s 38 47 mph 994.4mb 51f 50f
Thu 11/20 11:00pm  -   -  27
mph
- - -
10:00pm 8ft 9s 29 36 mph 997.8mb 51f 50f
9:00pm 9ft 10s 22 29 mph 998mb 51f 50f
8:00pm 7.5ft 10s 16 18 mph 998.1mb 51f 50f
7:00pm 7ft 9s 18 20 mph 997.4mb 51f 49f
6:00pm 7.5ft 9s 13 20 mph 997mb 51f 49f
5:00pm  -   -  22
mph
996.7mb - 50f
4:00pm 9ft 10s 22 29 mph 996.9mb 51f 50f
3:00pm 9ft 8s 22 29 mph 997.2mb 51f 50f
2:00pm 8ft 7s 27 34 mph 997.7mb 51f 50f
1:00pm 8ft 10s 27 34 mph 998mb 51f 51f
12:00pm 8.5ft 10s 27 36 mph 998.6mb 51f 51f
10:00am 7.5ft 9s 22 27 mph 999.5mb 51f 51f
9:00am 7ft 8s 22 29 mph 999.8mb 51f 50f
8:00am 6.5ft 9s 27 34 mph 1000mb 51f 51f
7:00am 5.5ft 8s 22 27 mph 1000.5mb 51f 51f
6:00am 5.5ft 9s 25 29 mph 1000.7mb 51f 52f
5:00am 5ft 8s 20 27 mph 1001.1mb 51f 51f
4:00am 5ft 10s 20 25 mph 1001.8mb 51f 50f
3:00am 5.5ft 10s 18 20 mph 1002.4mb 51f 49f
2:00am 6ft 10s 18 22 mph 1002.8mb 51f 51f
1:00am 6ft 10s 13 16 mph 1003mb 51f 50f
12:00am 7ft 10s 11 16 mph 1003.2mb 51f 50f
Wed 11/19 11:00pm 7.5ft 10s 13 16 mph 1003.9mb 51f 50f
10:00pm 6.5ft 8s 13 18 mph 1004mb 51f 50f
9:00pm  -   -  18
mph
- - -
8:00pm 6.5ft 8s 25 31 mph 1004.5mb 51f 50f
7:00pm 6ft 10s 25 31 mph 1004.6mb 51f 50f
6:00pm 5.5ft 10s 25 29 mph 1005.1mb 52f 49f
5:00pm 5ft 10s 22 27 mph 1005.9mb 52f 49f
4:00pm 4.5ft 10s 18 22 mph 1006.7mb 52f 49f
3:00pm 4ft 10s 13 20 mph 1007mb 52f 51f
2:00pm 4.5ft 9s 11 13 mph 1007mb 52f 50f
1:00pm 4.5ft 9s 16 20 mph 1007.7mb 52f 49f
12:00pm 5.5ft 9s 16 20 mph 1008.2mb 52f 50f
11:00am 5.5ft 10s 16 18 mph 1008.8mb 52f 50f
10:00am 5.5ft 8s 18 25 mph 1009.2mb 52f 52f
9:00am 5.5ft 8s 20 27 mph 1009.5mb 52f 51f
8:00am 5ft 8s 18 25 mph 1009.7mb 52f 52f
7:00am 5.5ft 8s 18 22 mph 1010.1mb 51f 51f
6:00am 6ft 9s 22 25 mph 1010.6mb 51f 52f
5:00am 6ft 9s 22 25 mph 1011.1mb 51f 51f
4:00am 6ft 8s 25 29 mph 1011.2mb 51f 50f
3:00am 6ft 8s 22 31 mph 1011.6mb 51f 53f
2:00am 6ft 9s 27 34 mph 1011.8mb 51f 52f
12:00am 7ft 9s 22 27 mph 1012.1mb 52f 53f
Tue 11/18 11:00pm 7ft 8s 22 27 mph 1012.1mb 51f 53f
10:00pm 7ft 8s 22 29 mph 1012.2mb 51f 52f
9:00pm 8ft 9s 20 27 mph 1012.8mb 50f 51f
8:00pm 8.5ft 9s 22 29 mph 1012.8mb 50f 51f
7:00pm 9ft 8s 27 34 mph 1012.7mb 50f 50f
6:00pm 10ft 9s 29 36 mph 1013.2mb 50f 50f
5:00pm 9ft 7s 29 36 mph 1013.2mb 50f 49f
4:00pm 10ft 10s 29 38 mph 1013.4mb 50f 49f
3:00pm  -   -  27
mph
1013.8mb - 49f